Prairie Rose, North Dakota
Current Conditions -  °F | °C
As of 1:53 PM on Thursday 27 Nov 2014 (Local Time) from KFAR Reporting Station
Clear Clear  
Wind Chill: -9°   Ceiling: Unl
Heat Index:   Visibility: 10mi
Dew Point: -5°   Wind: 10mph
Humidity: 60%   Direction: 150°SSE
Pressure: 30.37"   Gusts: NA
Location:  46.8079°N, 96.8643°W
Report Text: KFAR 271953Z 15009KT 10SM CLR M14/M21 A3037 RMK AO2 SLP314 T11441206
Loading
Personal Weather Stations






























Interactive Weather Map New forecast layout! Learn more

10-Day Weather Forecast

Advertisements
Track Severe Weather on mobile